Time;durP1;ratioP1;P1;durP2;ratioP2;P2;SDS_P1;SDS_P2;PMS_P1;PMS_P2;Temp;Humidity;BMP_temperature;BMP_pressure;BME280_temperature;BME280_humidity;BME280_pressure;Samples;Min_cycle;Max_cycle;Signal;HPM_P1;HPM_P2
2023/06/14 04:01:45;;;;;;;4.67;3.00;;;11.90;97.30;;;;;;5395018;23;20501;-86
2023/06/14 04:04:11;;;;;;;1.63;1.53;;;11.90;97.30;;;;;;4950557;29;20482;-90
2023/06/14 04:06:36;;;;;;;12.73;2.20;;;11.90;97.30;;;;;;4950353;29;20434;-90
2023/06/14 04:09:02;;;;;;;1.87;1.87;;;11.90;97.30;;;;;;4951454;29;20191;-86
2023/06/14 04:11:28;;;;;;;2.23;2.03;;;11.90;97.30;;;;;;4951210;29;20206;-88
2023/06/14 04:13:56;;;;;;;2.33;2.13;;;11.90;97.30;;;;;;4951986;29;20186;-89
2023/06/14 04:16:21;;;;;;;3.00;2.80;;;11.90;97.30;;;;;;4951577;28;20186;-87
2023/06/14 04:18:48;;;;;;;5.13;2.27;;;11.90;97.30;;;;;;4973543;23;20906;-85
2023/06/14 04:21:15;;;;;;;1.53;1.50;;;12.00;97.30;;;;;;4959567;28;20258;-83
2023/06/14 04:23:43;;;;;;;1.63;1.53;;;12.00;97.30;;;;;;4951036;29;20422;-83
2023/06/14 04:26:10;;;;;;;2.73;1.43;;;12.00;97.30;;;;;;4951774;29;20270;-83
2023/06/14 04:28:40;;;;;;;2.03;1.63;;;12.10;97.30;;;;;;4938706;28;20590;-83
2023/06/14 04:31:08;;;;;;;2.60;2.13;;;12.10;97.30;;;;;;4932546;29;20503;-82
2023/06/14 04:33:42;;;;;;;1.93;1.80;;;12.10;97.30;;;;;;4932545;29;20428;-82
2023/06/14 04:36:09;;;;;;;1.60;1.50;;;12.20;97.30;;;;;;4932848;29;20462;-84
2023/06/14 04:38:35;;;;;;;2.27;2.07;;;12.20;97.30;;;;;;4931989;29;20475;-82
2023/06/14 04:41:02;;;;;;;3.83;2.50;;;12.20;97.30;;;;;;4933165;29;20431;-82
2023/06/14 04:43:27;;;;;;;2.60;1.67;;;12.30;97.30;;;;;;4933659;29;20183;-81
2023/06/14 04:45:55;;;;;;;1.80;1.80;;;12.30;97.30;;;;;;4934432;29;20423;-82
2023/06/14 04:48:22;;;;;;;1.80;1.70;;;12.40;97.30;;;;;;4925409;29;20204;-82
2023/06/14 04:50:48;;;;;;;2.30;1.97;;;12.40;97.30;;;;;;4931488;29;20676;-82
2023/06/14 04:53:13;;;;;;;1.93;1.90;;;12.50;97.30;;;;;;4927755;29;20444;-84
2023/06/14 04:55:39;;;;;;;5.50;2.53;;;12.50;97.30;;;;;;4933713;29;20188;-82
2023/06/14 04:58:05;;;;;;;1.97;1.40;;;12.50;97.30;;;;;;4935410;29;20235;-82
2023/06/14 05:00:31;;;;;;;1.87;1.77;;;12.60;97.30;;;;;;4935552;29;20426;-82
2023/06/14 05:02:56;;;;;;;2.30;1.60;;;12.70;97.30;;;;;;4949339;29;20187;-84
2023/06/14 05:05:23;;;;;;;1.70;1.70;;;12.70;97.30;;;;;;4927668;29;20203;-84
2023/06/14 05:07:48;;;;;;;4.80;1.63;;;12.80;97.30;;;;;;4934317;29;20207;-84
2023/06/14 05:10:14;;;;;;;2.00;1.90;;;12.80;97.30;;;;;;4934396;29;20427;-83
2023/06/14 05:12:40;;;;;;;2.60;1.70;;;12.90;97.30;;;;;;4945257;29;20191;-82
2023/06/14 05:15:08;;;;;;;2.07;1.50;;;12.90;97.30;;;;;;4929159;29;20188;-82
2023/06/14 05:17:35;;;;;;;4.60;2.47;;;13.00;97.30;;;;;;4935275;29;20511;-82
2023/06/14 05:20:01;;;;;;;1.70;1.60;;;13.00;97.30;;;;;;4936810;29;20848;-82
2023/06/14 05:22:27;;;;;;;4.57;3.47;;;13.10;97.30;;;;;;4935527;29;20461;-82
2023/06/14 05:24:52;;;;;;;1.40;1.30;;;13.10;97.30;;;;;;4934798;29;20914;-82
2023/06/14 05:27:18;;;;;;;3.03;2.87;;;13.20;97.30;;;;;;4931597;29;20208;-83
2023/06/14 05:29:43;;;;;;;1.97;1.83;;;13.30;97.30;;;;;;4929495;29;20555;-82
2023/06/14 05:32:09;;;;;;;2.40;2.20;;;13.30;97.30;;;;;;4936235;29;20203;-83
2023/06/14 05:34:35;;;;;;;2.07;1.97;;;13.40;97.30;;;;;;4944635;29;20191;-82
2023/06/14 05:37:00;;;;;;;2.27;2.03;;;13.40;97.30;;;;;;4934312;29;20554;-82
2023/06/14 05:39:26;;;;;;;2.77;2.13;;;13.50;97.30;;;;;;4933124;29;20211;-85
2023/06/14 05:41:51;;;;;;;2.77;2.57;;;13.50;97.30;;;;;;4934212;29;20501;-84
2023/06/14 05:44:17;;;;;;;2.27;2.10;;;13.60;97.30;;;;;;4933207;29;20576;-83
2023/06/14 05:46:43;;;;;;;3.30;2.20;;;13.70;97.30;;;;;;4935921;29;20267;-84
2023/06/14 05:49:08;;;;;;;5.33;2.93;;;13.70;97.30;;;;;;4934652;29;20208;-85
2023/06/14 05:51:35;;;;;;;2.47;2.27;;;13.80;97.30;;;;;;4935683;29;20853;-82
2023/06/14 05:54:00;;;;;;;4.73;2.73;;;13.90;97.30;;;;;;4938236;29;20640;-84
2023/06/14 05:56:26;;;;;;;2.93;2.60;;;13.90;97.30;;;;;;4933755;29;20586;-84
2023/06/14 05:58:51;;;;;;;4.50;2.70;;;14.00;97.30;;;;;;4934035;29;20211;-82
2023/06/14 06:01:17;;;;;;;2.80;1.93;;;14.10;97.30;;;;;;4935696;29;20187;-84
2023/06/14 06:03:45;;;;;;;2.03;1.90;;;14.10;97.30;;;;;;4933334;29;20183;-81
2023/06/14 06:06:11;;;;;;;5.70;3.60;;;14.10;97.30;;;;;;4934364;29;20210;-81
2023/06/14 06:08:37;;;;;;;2.27;2.10;;;14.20;97.30;;;;;;4933932;29;20715;-84
2023/06/14 06:11:02;;;;;;;16.73;1.80;;;14.30;97.30;;;;;;4934786;29;20880;-82
2023/06/14 06:13:28;;;;;;;5.63;3.23;;;14.30;97.30;;;;;;4933240;29;20668;-84
2023/06/14 06:15:53;;;;;;;4.27;4.00;;;14.40;97.30;;;;;;4935581;29;20184;-80
2023/06/14 06:18:19;;;;;;;1.77;1.67;;;14.50;97.30;;;;;;4934371;29;20313;-84
2023/06/14 06:20:45;;;;;;;3.20;2.63;;;14.50;97.30;;;;;;4934164;29;20196;-85
2023/06/14 06:23:10;;;;;;;2.87;2.00;;;14.60;97.30;;;;;;4935216;29;20184;-84
2023/06/14 06:25:36;;;;;;;3.23;2.70;;;14.60;97.30;;;;;;4934312;29;20431;-81
2023/06/14 06:28:02;;;;;;;2.13;1.67;;;14.70;97.30;;;;;;4928198;29;20196;-81
2023/06/14 06:30:27;;;;;;;4.13;2.53;;;14.80;97.30;;;;;;4935640;29;20490;-83
2023/06/14 06:32:53;;;;;;;2.67;2.30;;;14.80;97.30;;;;;;4935169;29;20252;-82
2023/06/14 06:35:18;;;;;;;2.27;2.07;;;14.80;97.30;;;;;;4932663;29;20271;-84
2023/06/14 06:37:44;;;;;;;3.80;1.63;;;14.90;97.30;;;;;;4945466;29;20625;-83
2023/06/14 06:40:10;;;;;;;2.90;2.37;;;15.00;97.30;;;;;;4933959;29;20208;-84
2023/06/14 06:42:36;;;;;;;3.43;2.20;;;15.10;97.30;;;;;;4931468;29;20191;-81
2023/06/14 06:45:01;;;;;;;3.87;2.40;;;15.10;97.30;;;;;;4935613;29;20657;-85
2023/06/14 06:47:27;;;;;;;3.33;3.17;;;15.20;97.30;;;;;;4933276;29;20226;-85
2023/06/14 06:49:52;;;;;;;33.27;5.50;;;15.20;97.20;;;;;;4935412;29;20180;-84
2023/06/14 06:52:18;;;;;;;2.33;2.13;;;15.30;97.30;;;;;;4933362;29;20234;-81
2023/06/14 06:54:43;;;;;;;4.47;2.67;;;15.30;97.20;;;;;;4932195;29;20702;-83
2023/06/14 06:57:10;;;;;;;4.13;1.97;;;15.40;97.30;;;;;;4926004;29;20188;-84
2023/06/14 06:59:36;;;;;;;2.40;2.20;;;15.50;96.90;;;;;;4933608;29;20210;-83
2023/06/14 07:02:01;;;;;;;2.27;1.83;;;15.50;96.90;;;;;;4933614;29;20436;-84
2023/06/14 07:04:27;;;;;;;3.03;2.50;;;15.60;96.20;;;;;;4932617;29;20179;-83
2023/06/14 07:06:52;;;;;;;1.97;1.57;;;15.60;96.20;;;;;;4932478;29;20667;-82
2023/06/14 07:09:19;;;;;;;4.07;2.73;;;15.60;96.30;;;;;;4933543;29;20239;-84
2023/06/14 07:11:45;;;;;;;4.97;2.23;;;15.70;96.10;;;;;;4934249;29;20227;-82
2023/06/14 07:14:11;;;;;;;2.43;2.23;;;15.80;96.10;;;;;;4931384;29;20463;-84
2023/06/14 07:16:37;;;;;;;3.30;3.10;;;15.80;96.10;;;;;;4931072;29;20191;-84
2023/06/14 07:19:03;;;;;;;2.43;2.07;;;15.90;95.50;;;;;;4935445;29;20231;-84
2023/06/14 07:21:29;;;;;;;2.40;1.43;;;16.00;95.40;;;;;;4943523;29;20271;-82
2023/06/14 07:23:54;;;;;;;2.03;1.90;;;16.10;95.10;;;;;;4935095;29;20507;-84
2023/06/14 07:26:20;;;;;;;2.60;1.87;;;16.20;94.30;;;;;;4933241;29;20587;-85
2023/06/14 07:28:48;;;;;;;3.03;2.73;;;16.30;93.90;;;;;;4934061;29;20211;-83
2023/06/14 07:31:15;;;;;;;2.90;2.27;;;16.30;93.70;;;;;;4932780;29;20427;-82
2023/06/14 07:33:41;;;;;;;2.40;1.87;;;16.40;93.50;;;;;;4927791;29;20432;-82
2023/06/14 07:36:07;;;;;;;3.83;2.73;;;16.50;93.60;;;;;;4933980;29;20536;-83
2023/06/14 07:38:33;;;;;;;1.63;1.57;;;16.60;93.10;;;;;;4934018;29;20558;-84
2023/06/14 07:40:59;;;;;;;1.57;1.50;;;16.60;93.40;;;;;;4933810;29;20949;-82
2023/06/14 07:43:24;;;;;;;1.83;1.73;;;16.70;92.40;;;;;;4934481;29;20331;-85
2023/06/14 07:45:50;;;;;;;1.87;1.77;;;16.80;92.40;;;;;;4935554;29;20426;-81
2023/06/14 07:48:15;;;;;;;2.57;2.37;;;16.90;92.80;;;;;;4936030;29;20666;-81
2023/06/14 07:50:41;;;;;;;2.47;2.17;;;17.00;92.50;;;;;;4934484;29;20389;-83
2023/06/14 07:53:06;;;;;;;3.07;2.30;;;17.10;92.10;;;;;;4935677;29;20279;-82
2023/06/14 07:55:36;;;;;;;2.80;1.93;;;17.20;91.90;;;;;;4946048;29;20191;-84
2023/06/14 07:58:06;;;;;;;2.00;1.90;;;17.30;91.00;;;;;;4935913;29;20251;-81
2023/06/14 08:00:31;;;;;;;2.20;1.57;;;17.40;90.20;;;;;;4932061;29;20440;-84
2023/06/14 08:02:59;;;;;;;1.57;1.47;;;17.50;91.00;;;;;;4935688;29;20475;-82
2023/06/14 08:05:28;;;;;;;2.53;1.60;;;17.60;90.80;;;;;;4948834;29;20950;-84
2023/06/14 08:07:54;;;;;;;1.90;1.50;;;17.70;90.50;;;;;;4934589;29;20458;-81
2023/06/14 08:10:20;;;;;;;2.30;1.40;;;17.80;89.40;;;;;;4928911;29;20449;-84
2023/06/14 08:12:46;;;;;;;5.07;2.70;;;17.90;89.10;;;;;;4933181;29;20266;-85
2023/06/14 08:15:11;;;;;;;1.63;1.53;;;17.90;88.60;;;;;;4928144;29;20566;-82
2023/06/14 08:17:37;;;;;;;2.17;1.40;;;18.00;88.40;;;;;;4928031;29;20243;-85
2023/06/14 08:20:06;;;;;;;2.83;1.73;;;18.00;86.90;;;;;;4934265;29;20792;-81
2023/06/14 08:22:33;;;;;;;3.50;2.03;;;18.00;87.30;;;;;;4932048;29;20668;-82
2023/06/14 08:25:00;;;;;;;1.80;1.80;;;18.00;86.30;;;;;;4950731;29;20464;-82
2023/06/14 08:27:26;;;;;;;2.13;2.00;;;18.00;85.90;;;;;;4929823;29;20460;-84
2023/06/14 08:29:52;;;;;;;4.23;2.60;;;18.10;85.90;;;;;;4945639;29;20436;-81
2023/06/14 08:32:17;;;;;;;2.40;2.13;;;18.10;86.20;;;;;;4932028;29;20188;-83
2023/06/14 08:34:43;;;;;;;3.40;2.20;;;18.20;86.40;;;;;;4933375;29;20540;-84
2023/06/14 08:37:08;;;;;;;5.80;3.33;;;18.30;86.90;;;;;;4947261;29;20180;-84
2023/06/14 08:39:34;;;;;;;4.03;2.57;;;18.40;86.50;;;;;;4932929;29;20226;-84
2023/06/14 08:42:02;;;;;;;5.33;1.53;;;18.60;85.80;;;;;;4934895;29;20657;-84
2023/06/14 08:44:28;;;;;;;2.07;1.93;;;18.70;85.40;;;;;;4934687;29;20832;-84
2023/06/14 08:46:57;;;;;;;2.13;1.97;;;18.70;84.90;;;;;;4951411;29;20562;-82
2023/06/14 08:49:24;;;;;;;5.57;2.37;;;18.80;85.20;;;;;;4935813;29;20204;-84
2023/06/14 08:51:57;;;;;;;2.87;2.23;;;18.90;84.70;;;;;;4936432;29;20439;-81
2023/06/14 08:54:24;;;;;;;1.87;1.77;;;19.00;84.90;;;;;;4932375;29;21205;-86
2023/06/14 08:56:51;;;;;;;2.63;2.00;;;19.10;83.70;;;;;;4934644;29;20439;-81
2023/06/14 08:59:18;;;;;;;2.87;2.73;;;19.10;83.90;;;;;;4934451;29;20485;-84
2023/06/14 09:01:45;;;;;;;3.90;2.50;;;19.10;83.80;;;;;;4936760;29;20423;-82
2023/06/14 09:04:10;;;;;;;2.23;2.03;;;19.20;84.00;;;;;;4935208;29;20444;-84
2023/06/14 09:06:36;;;;;;;4.50;2.23;;;19.30;83.60;;;;;;4933807;29;20446;-84
2023/06/14 09:09:04;;;;;;;1.50;1.40;;;19.30;82.90;;;;;;4934481;29;20212;-85
2023/06/14 09:11:30;;;;;;;3.30;2.27;;;19.30;83.00;;;;;;4934532;29;20187;-83
2023/06/14 09:13:56;;;;;;;2.80;2.30;;;19.30;82.90;;;;;;4934802;29;20520;-84
2023/06/14 09:16:21;;;;;;;1.30;1.20;;;19.40;83.30;;;;;;4933189;29;20522;-83
2023/06/14 09:18:47;;;;;;;1.27;1.17;;;19.50;82.70;;;;;;4929866;29;20235;-82
2023/06/14 09:21:14;;;;;;;2.90;2.20;;;19.60;82.40;;;;;;4933196;29;20583;-82
2023/06/14 09:23:42;;;;;;;3.90;1.97;;;19.70;82.30;;;;;;4928752;29;20423;-83
2023/06/14 09:26:15;;;;;;;2.50;2.30;;;19.70;82.00;;;;;;4927055;29;20474;-85
2023/06/14 09:28:59;;;;;;;3.17;2.67;;;19.70;81.30;;;;;;4940588;28;20949;-82
2023/06/14 09:31:25;;;;;;;9.63;3.47;;;19.70;81.70;;;;;;4931469;29;20443;-85
2023/06/14 09:33:51;;;;;;;3.60;3.20;;;19.70;81.50;;;;;;4927773;29;20972;-82
2023/06/14 09:36:17;;;;;;;1.70;1.60;;;19.70;81.90;;;;;;4938813;29;20180;-83
2023/06/14 09:38:55;;;;;;;3.27;2.07;;;19.80;81.30;;;;;;4936978;29;20216;-84
2023/06/14 09:41:31;;;;;;;2.60;2.40;;;19.80;81.90;;;;;;4949406;29;20498;-84
2023/06/14 09:44:00;;;;;;;3.43;2.50;;;19.90;81.60;;;;;;4938292;29;20431;-83
2023/06/14 09:46:26;;;;;;;2.50;2.30;;;20.00;82.00;;;;;;4936930;29;20962;-85
2023/06/14 09:48:52;;;;;;;2.87;1.93;;;20.00;81.50;;;;;;4936796;29;20444;-82
2023/06/14 09:51:20;;;;;;;3.10;1.97;;;20.10;81.40;;;;;;4937093;29;20501;-85
2023/06/14 09:53:48;;;;;;;2.20;2.00;;;20.20;80.70;;;;;;4936888;29;20188;-83
2023/06/14 09:56:20;;;;;;;3.90;1.53;;;20.20;80.90;;;;;;4934048;29;20432;-83
2023/06/14 09:58:46;;;;;;;3.13;1.97;;;20.20;79.90;;;;;;4935814;29;20651;-81
2023/06/14 10:01:13;;;;;;;3.33;1.93;;;20.20;79.80;;;;;;4937241;29;20965;-85
2023/06/14 10:03:40;;;;;;;1.63;1.53;;;20.10;80.00;;;;;;4935172;29;20462;-85
2023/06/14 10:06:08;;;;;;;1.77;1.57;;;20.10;80.40;;;;;;4935386;29;20424;-82
2023/06/14 10:08:36;;;;;;;1.23;1.13;;;20.20;80.50;;;;;;4937619;29;20459;-85
2023/06/14 10:11:02;;;;;;;2.40;2.10;;;20.20;80.20;;;;;;4935823;29;21077;-83
2023/06/14 10:13:31;;;;;;;1.70;1.60;;;20.20;80.20;;;;;;4934302;29;20483;-85
2023/06/14 10:16:14;;;;;;;3.80;1.83;;;20.20;80.10;;;;;;4935554;29;20195;-83
2023/06/14 10:19:04;;;;;;;2.80;1.67;;;20.10;80.40;;;;;;4931293;29;20482;-83
2023/06/14 10:21:46;;;;;;;6.60;2.67;;;20.10;80.20;;;;;;4972952;23;20562;-84
2023/06/14 10:24:15;;;;;;;2.57;1.60;;;20.10;80.10;;;;;;4938495;29;20431;-87
2023/06/14 10:26:54;;;;;;;2.20;1.70;;;20.00;80.00;;;;;;4950370;28;20857;-84
2023/06/14 10:29:20;;;;;;;2.27;2.07;;;20.00;80.10;;;;;;4944381;29;20511;-86
2023/06/14 10:31:50;;;;;;;1.47;1.30;;;20.00;79.60;;;;;;4940905;29;20535;-85
2023/06/14 10:34:23;;;;;;;1.73;1.63;;;20.00;80.20;;;;;;4950579;29;20673;-84
2023/06/14 10:37:06;;;;;;;1.67;1.60;;;20.00;81.20;;;;;;4936358;29;21197;-85
2023/06/14 10:39:39;;;;;;;3.10;1.50;;;20.10;81.60;;;;;;4951247;29;20521;-85
2023/06/14 10:42:06;;;;;;;2.80;2.40;;;20.20;81.00;;;;;;4952587;29;20419;-86
2023/06/14 10:44:39;;;;;;;1.73;1.47;;;20.30;81.20;;;;;;4950995;29;20431;-84
2023/06/14 10:47:20;;;;;;;1.67;1.60;;;20.50;81.30;;;;;;4949873;29;20418;-88
2023/06/14 10:49:50;;;;;;;2.37;1.97;;;20.60;81.10;;;;;;4968833;28;20426;-84
2023/06/14 10:52:20;;;;;;;1.60;1.50;;;20.60;81.80;;;;;;4943769;29;20426;-85
2023/06/14 10:55:05;;;;;;;1.80;1.80;;;20.80;81.80;;;;;;4939348;29;20419;-85
2023/06/14 10:57:32;;;;;;;5.23;1.83;;;20.90;80.80;;;;;;4950094;29;20455;-86
2023/06/14 10:59:59;;;;;;;2.90;1.50;;;21.00;80.40;;;;;;4950488;29;20482;-89
2023/06/14 11:03:06;;;;;;;2.97;1.90;;;21.10;80.50;;;;;;4948072;29;20415;-85
2023/06/14 11:05:47;;;;;;;4.40;1.83;;;21.30;80.20;;;;;;4947928;29;20411;-86
2023/06/14 11:08:50;;;;;;;4.20;2.20;;;21.40;80.20;;;;;;4940681;29;20428;-89
2023/06/14 11:11:16;;;;;;;1.97;1.87;;;21.60;79.80;;;;;;4939894;29;20467;-87
2023/06/14 11:13:46;;;;;;;1.20;1.10;;;21.60;80.40;;;;;;4952001;29;20828;-86
2023/06/14 11:16:16;;;;;;;3.10;1.40;;;21.70;78.50;;;;;;4950876;29;20510;-85
2023/06/14 11:18:42;;;;;;;1.73;1.63;;;21.60;78.30;;;;;;4947247;29;20463;-89
2023/06/14 11:21:08;;;;;;;1.73;1.63;;;21.40;79.00;;;;;;4945387;29;20470;-85
2023/06/14 11:23:34;;;;;;;2.73;2.00;;;21.40;80.40;;;;;;4943460;29;20423;-86
2023/06/14 11:26:00;;;;;;;2.43;1.50;;;21.50;80.70;;;;;;4951346;29;20422;-85
2023/06/14 11:28:38;;;;;;;1.63;1.60;;;21.70;79.80;;;;;;4944214;29;20424;-88
2023/06/14 11:31:04;;;;;;;1.27;1.20;;;21.70;79.60;;;;;;4964491;29;20203;-86
2023/06/14 11:33:30;;;;;;;2.40;1.80;;;21.90;80.20;;;;;;4962503;29;20910;-87
2023/06/14 11:35:55;;;;;;;2.60;1.73;;;22.00;80.20;;;;;;4963882;29;20180;-86
2023/06/14 11:38:21;;;;;;;3.10;1.50;;;22.10;80.10;;;;;;4945619;29;20289;-88
2023/06/14 11:40:46;;;;;;;4.77;1.40;;;22.30;78.90;;;;;;4952747;29;20240;-86
2023/06/14 11:43:13;;;;;;;1.93;1.53;;;22.30;78.40;;;;;;4950986;29;20179;-86
2023/06/14 11:45:39;;;;;;;1.60;1.50;;;22.40;78.70;;;;;;4951698;28;20176;-87
2023/06/14 11:48:11;;;;;;;1.20;1.10;;;22.40;77.70;;;;;;4951424;29;20845;-90
2023/06/14 11:50:44;;;;;;;4.53;2.27;;;22.20;77.80;;;;;;4948915;29;20287;-90
2023/06/14 11:53:12;;;;;;;1.50;1.40;;;21.90;78.20;;;;;;4950495;29;20433;-89
2023/06/14 11:55:47;;;;;;;1.50;1.40;;;21.80;79.00;;;;;;4934861;29;20436;-90
2023/06/14 11:58:14;;;;;;;5.77;1.83;;;21.80;79.70;;;;;;4949808;29;20521;-87
2023/06/14 12:00:42;;;;;;;2.30;1.87;;;21.90;78.70;;;;;;4950002;28;20533;-89
2023/06/14 12:03:13;;;;;;;2.50;2.27;;;21.90;79.90;;;;;;4948998;29;20441;-89
2023/06/14 12:05:41;;;;;;;1.67;1.57;;;22.00;79.70;;;;;;4946634;29;20837;-87
2023/06/14 12:08:12;;;;;;;2.43;2.13;;;21.90;79.20;;;;;;4949219;29;20497;-91
2023/06/14 12:10:43;;;;;;;3.80;2.50;;;21.80;79.40;;;;;;4951330;29;20446;-87
2023/06/14 12:13:19;;;;;;;1.47;1.37;;;21.70;79.90;;;;;;4941901;29;20410;-90
2023/06/14 12:15:44;;;;;;;1.70;1.60;;;21.60;79.60;;;;;;4945443;29;20842;-90
2023/06/14 12:18:12;;;;;;;2.27;2.07;;;21.50;79.70;;;;;;4942391;29;20414;-87
2023/06/14 12:20:42;;;;;;;2.83;2.33;;;21.50;80.10;;;;;;4949059;29;20253;-87
2023/06/14 12:23:11;;;;;;;1.50;1.40;;;21.60;82.00;;;;;;4954469;29;20487;-88
2023/06/14 12:25:44;;;;;;;2.53;2.20;;;21.80;80.10;;;;;;4942822;29;20533;-90
2023/06/14 12:28:12;;;;;;;5.03;2.60;;;21.80;79.50;;;;;;4949758;29;20422;-87
2023/06/14 12:30:40;;;;;;;1.80;1.67;;;21.80;79.60;;;;;;4946507;29;20439;-87
2023/06/14 12:33:07;;;;;;;2.93;1.93;;;21.70;79.80;;;;;;4946239;29;20430;-90
2023/06/14 12:35:32;;;;;;;2.13;1.97;;;21.50;80.00;;;;;;4942424;29;20797;-90
2023/06/14 12:38:03;;;;;;;3.00;1.93;;;21.50;80.60;;;;;;4945578;29;20510;-86
2023/06/14 12:40:39;;;;;;;;;;;;;;;;;;;;;
2023/06/14 12:43:05;;;;;;;2.00;1.70;;;21.30;80.90;;;;;;4952433;29;20921;-87
2023/06/14 12:45:33;;;;;;;1.33;1.23;;;21.40;82.30;;;;;;4949003;29;20530;-87
2023/06/14 12:48:03;;;;;;;1.30;1.20;;;21.50;81.50;;;;;;4950766;29;20546;-87
2023/06/14 12:50:31;;;;;;;1.70;1.60;;;21.70;81.70;;;;;;4942713;29;20708;-87
2023/06/14 12:52:59;;;;;;;2.80;2.50;;;22.00;82.10;;;;;;4944584;29;20801;-88
2023/06/14 12:55:25;;;;;;;1.60;1.50;;;22.10;81.10;;;;;;4944409;29;20469;-90
2023/06/14 12:57:53;;;;;;;1.63;1.53;;;22.20;81.00;;;;;;4946977;29;20459;-87
2023/06/14 13:00:21;;;;;;;2.20;1.93;;;22.30;80.80;;;;;;4933308;29;20228;-90
2023/06/14 13:02:55;;;;;;;2.93;2.73;;;22.20;80.30;;;;;;4946570;29;20462;-87
2023/06/14 13:05:24;;;;;;;3.23;2.83;;;22.10;80.70;;;;;;4949777;29;20482;-88
2023/06/14 13:07:52;;;;;;;1.73;1.63;;;21.90;80.80;;;;;;4948488;29;20423;-89
2023/06/14 13:10:20;;;;;;;2.20;2.00;;;21.80;80.90;;;;;;4951003;29;20458;-88
2023/06/14 13:12:45;;;;;;;2.47;2.27;;;21.70;82.00;;;;;;4935475;29;20678;-90
2023/06/14 13:15:13;;;;;;;1.87;1.77;;;21.70;82.00;;;;;;4946826;29;20441;-87
2023/06/14 13:17:43;;;;;;;3.13;2.10;;;21.70;82.30;;;;;;4945824;29;20198;-87
2023/06/14 13:20:11;;;;;;;1.90;1.40;;;21.70;82.30;;;;;;4953829;29;20485;-90
2023/06/14 13:22:44;;;;;;;5.03;2.17;;;21.70;82.10;;;;;;4945505;29;20510;-90
2023/06/14 13:25:12;;;;;;;2.50;2.30;;;21.80;81.60;;;;;;4952570;29;20474;-88
2023/06/14 13:27:37;;;;;;;4.87;2.90;;;21.80;81.50;;;;;;4942677;29;20430;-90
2023/06/14 13:30:05;;;;;;;2.10;1.73;;;21.80;81.50;;;;;;4948674;29;20473;-87
2023/06/14 13:32:31;;;;;;;1.57;1.47;;;21.70;81.30;;;;;;4953323;29;20218;-88
2023/06/14 13:34:59;;;;;;;2.40;2.20;;;21.70;80.90;;;;;;4951632;29;20925;-90
2023/06/14 13:37:24;;;;;;;2.43;1.83;;;21.60;81.30;;;;;;4950987;29;21067;-90
2023/06/14 13:39:50;;;;;;;2.00;1.73;;;21.60;81.20;;;;;;4946207;29;20561;-87
2023/06/14 13:42:15;;;;;;;6.50;2.80;;;21.50;81.80;;;;;;4939196;29;20202;-87
2023/06/14 13:44:41;;;;;;;1.80;1.70;;;21.50;81.80;;;;;;4965519;28;20638;-87
2023/06/14 13:47:06;;;;;;;5.43;2.87;;;21.50;81.90;;;;;;4952624;29;20191;-87
2023/06/14 13:49:32;;;;;;;2.30;2.10;;;21.50;82.20;;;;;;4953708;29;20183;-87
2023/06/14 13:51:59;;;;;;;1.90;1.80;;;21.50;82.20;;;;;;4950876;29;20199;-87
2023/06/14 13:54:25;;;;;;;2.50;2.30;;;21.60;81.90;;;;;;4944677;29;20185;-89
2023/06/14 13:56:50;;;;;;;2.77;1.93;;;21.60;81.90;;;;;;4949785;29;20427;-88
2023/06/14 13:59:16;;;;;;;3.40;1.73;;;21.60;82.30;;;;;;4942692;29;20212;-86
2023/06/14 14:01:42;;;;;;;3.87;1.53;;;21.70;82.80;;;;;;4950628;29;20196;-90
2023/06/14 14:04:08;;;;;;;6.20;2.60;;;21.80;82.60;;;;;;4944239;29;20435;-87
2023/06/14 14:06:33;;;;;;;2.03;1.90;;;21.90;82.80;;;;;;4950467;29;20202;-88
2023/06/14 14:08:59;;;;;;;2.30;1.87;;;22.00;82.10;;;;;;4944876;29;20454;-86
2023/06/14 14:11:24;;;;;;;3.53;2.53;;;22.20;82.70;;;;;;4952724;29;20215;-90
2023/06/14 14:13:50;;;;;;;2.10;1.53;;;22.60;82.90;;;;;;4952798;29;20250;-91
2023/06/14 14:16:16;;;;;;;3.20;1.60;;;23.00;79.90;;;;;;4953287;29;20186;-89
2023/06/14 14:18:41;;;;;;;1.50;1.40;;;23.10;79.70;;;;;;4945089;29;20219;-88
2023/06/14 14:21:07;;;;;;;3.53;2.33;;;23.20;79.90;;;;;;4939600;29;20235;-87
2023/06/14 14:23:32;;;;;;;2.30;1.70;;;23.20;79.70;;;;;;4944161;28;20274;-90
2023/06/14 14:25:58;;;;;;;2.00;1.67;;;23.20;79.30;;;;;;4945960;29;20172;-90
2023/06/14 14:28:24;;;;;;;2.20;2.03;;;23.10;79.50;;;;;;4948869;29;20183;-90
2023/06/14 14:30:49;;;;;;;5.47;2.20;;;23.10;79.50;;;;;;4945947;29;20206;-88
2023/06/14 14:33:17;;;;;;;1.40;1.30;;;23.00;80.10;;;;;;4938576;29;20183;-89
2023/06/14 14:35:45;;;;;;;2.17;1.60;;;23.00;78.20;;;;;;4944683;29;20198;-90
2023/06/14 14:38:13;;;;;;;1.80;1.70;;;23.10;79.30;;;;;;4946645;29;20420;-89
2023/06/14 14:40:40;;;;;;;5.83;1.80;;;23.10;80.30;;;;;;4949749;29;20477;-90
2023/06/14 14:43:06;;;;;;;4.73;2.23;;;23.10;78.70;;;;;;4946002;29;20442;-90
2023/06/14 14:45:34;;;;;;;2.00;1.30;;;22.90;77.90;;;;;;4952496;29;20423;-91
2023/06/14 14:48:03;;;;;;;1.97;1.83;;;22.70;78.10;;;;;;4952166;29;20586;-87
2023/06/14 14:50:29;;;;;;;1.60;1.50;;;22.50;78.60;;;;;;4942959;29;20443;-87
2023/06/14 14:52:54;;;;;;;1.60;1.20;;;22.40;78.50;;;;;;4951687;29;20445;-89
2023/06/14 14:55:23;;;;;;;1.43;1.37;;;22.30;79.30;;;;;;4951177;29;20183;-87
2023/06/14 14:57:53;;;;;;;1.50;1.40;;;22.30;79.80;;;;;;4937626;29;20187;-87
2023/06/14 15:00:26;;;;;;;2.87;2.33;;;22.30;79.60;;;;;;4950101;29;20470;-87
2023/06/14 15:02:52;;;;;;;2.10;1.87;;;22.30;79.90;;;;;;4967150;28;20434;-89
2023/06/14 15:05:25;;;;;;;2.40;1.50;;;22.50;80.10;;;;;;4943827;29;20424;-90
2023/06/14 15:07:53;;;;;;;1.97;1.87;;;22.70;79.50;;;;;;4940146;29;20273;-87
2023/06/14 15:10:26;;;;;;;2.97;1.83;;;22.80;79.20;;;;;;4940945;29;20451;-86
2023/06/14 15:12:54;;;;;;;2.40;1.87;;;23.00;78.70;;;;;;4933206;29;20430;-87
2023/06/14 15:15:22;;;;;;;2.97;2.20;;;23.20;77.80;;;;;;4949299;29;20434;-87
2023/06/14 15:17:53;;;;;;;2.80;2.23;;;23.30;78.40;;;;;;4951271;29;20880;-87
2023/06/14 15:20:23;;;;;;;3.70;1.73;;;23.50;78.60;;;;;;4944462;29;20610;-89
2023/06/14 15:22:52;;;;;;;2.50;1.50;;;23.70;79.80;;;;;;4944174;29;20484;-89
2023/06/14 15:25:33;;;;;;;1.83;1.77;;;24.00;79.00;;;;;;4937630;29;20428;-87
2023/06/14 15:28:06;;;;;;;1.80;1.40;;;24.10;77.20;;;;;;4945513;29;20457;-88
2023/06/14 15:30:34;;;;;;;2.23;1.43;;;24.20;76.90;;;;;;4943998;29;20507;-89
2023/06/14 15:33:02;;;;;;;1.43;1.40;;;24.30;76.80;;;;;;4952087;29;20447;-87
2023/06/14 15:35:33;;;;;;;1.67;1.40;;;24.10;76.20;;;;;;4937739;28;20439;-88
2023/06/14 15:38:22;;;;;;;2.77;2.10;;;23.90;76.70;;;;;;4939958;29;20448;-87
2023/06/14 15:40:55;;;;;;;2.17;2.03;;;23.70;77.20;;;;;;4943151;29;20996;-87
2023/06/14 15:43:23;;;;;;;1.37;1.27;;;23.40;77.60;;;;;;4944253;29;20454;-88
2023/06/14 15:45:53;;;;;;;2.33;2.10;;;23.20;78.00;;;;;;4943431;29;20427;-88
2023/06/14 15:48:22;;;;;;;16.73;2.43;;;23.00;78.50;;;;;;4945107;29;20483;-87
2023/06/14 15:50:50;;;;;;;2.73;2.53;;;22.90;78.90;;;;;;4941204;29;20545;-89
2023/06/14 15:53:15;;;;;;;2.50;1.90;;;22.70;79.10;;;;;;4942397;29;20513;-87
2023/06/14 15:55:43;;;;;;;2.40;1.50;;;22.60;80.00;;;;;;4950962;29;20415;-91
2023/06/14 15:58:09;;;;;;;3.37;2.43;;;22.50;79.90;;;;;;4951297;29;20175;-87
2023/06/14 16:00:34;;;;;;;2.50;1.67;;;22.40;79.80;;;;;;4959314;29;20521;-88
2023/06/14 16:03:00;;;;;;;1.87;1.77;;;22.30;80.30;;;;;;4959961;29;20187;-90
2023/06/14 16:05:25;;;;;;;2.60;1.87;;;22.20;80.70;;;;;;4951733;29;20207;-86
2023/06/14 16:07:52;;;;;;;5.30;2.30;;;22.10;80.70;;;;;;4958803;29;20188;-91
2023/06/14 16:10:18;;;;;;;2.97;2.83;;;22.10;80.70;;;;;;4957387;29;20207;-89
2023/06/14 16:12:43;;;;;;;1.77;1.60;;;22.00;80.60;;;;;;4958889;29;20429;-88
2023/06/14 16:15:09;;;;;;;2.50;1.87;;;21.90;80.90;;;;;;4952847;29;20208;-86
2023/06/14 16:17:35;;;;;;;1.57;1.47;;;21.90;81.00;;;;;;4952799;29;20187;-89
2023/06/14 16:20:00;;;;;;;1.47;1.37;;;21.90;81.20;;;;;;4951409;29;20310;-87
2023/06/14 16:22:26;;;;;;;1.43;1.33;;;22.00;81.20;;;;;;4962826;23;20704;-85
2023/06/14 16:24:52;;;;;;;3.47;2.03;;;22.20;81.30;;;;;;4938299;28;20187;-85
2023/06/14 16:27:17;;;;;;;2.37;2.17;;;22.50;81.40;;;;;;4951228;29;20686;-85
2023/06/14 16:29:43;;;;;;;1.70;1.63;;;22.80;81.30;;;;;;4941868;29;20680;-85
2023/06/14 16:32:08;;;;;;;4.20;2.63;;;23.10;80.20;;;;;;4949635;29;20194;-85
2023/06/14 16:34:35;;;;;;;2.50;2.20;;;23.30;79.40;;;;;;4951201;29;20795;-83
2023/06/14 16:37:01;;;;;;;2.17;2.00;;;23.40;78.80;;;;;;4951561;29;20673;-83
2023/06/14 16:39:26;;;;;;;4.13;1.83;;;23.40;79.20;;;;;;4943868;29;20468;-85
2023/06/14 16:41:52;;;;;;;2.43;2.23;;;23.30;78.80;;;;;;4957648;28;20219;-83
2023/06/14 16:44:18;;;;;;;1.30;1.20;;;23.20;79.30;;;;;;4950619;28;20175;-84
2023/06/14 16:46:44;;;;;;;2.43;2.10;;;23.20;79.50;;;;;;4968747;28;20179;-82
2023/06/14 16:49:09;;;;;;;3.23;1.97;;;23.20;78.80;;;;;;4951933;28;20961;-84
2023/06/14 16:51:35;;;;;;;1.53;1.47;;;23.00;78.60;;;;;;4936721;28;20261;-86